Time;durP1;ratioP1;P1;durP2;ratioP2;P2;SDS_P1;SDS_P2;PMS_P1;PMS_P2;Temp;Humidity;BMP_temperature;BMP_pressure;BME280_temperature;BME280_humidity;BME280_pressure;Samples;Min_cycle;Max_cycle;Signal;HPM_P1;HPM_P2
2021/08/08 00:00:23;;;;;;;14.25;10.32;;;;;;;11.36;100.00;99241.75;1614155;88;21085;-69
2021/08/08 00:02:50;;;;;;;14.30;10.30;;;;;;;11.37;100.00;99238.56;1613921;88;21073;-69
2021/08/08 00:05:19;;;;;;;17.77;11.00;;;;;;;11.38;100.00;99244.19;1614233;88;22020;-69
2021/08/08 00:07:46;;;;;;;14.50;10.23;;;;;;;11.39;100.00;99244.45;1614085;88;21602;-69
2021/08/08 00:10:15;;;;;;;15.53;11.68;;;;;;;11.43;100.00;99249.56;1614015;88;21006;-70
2021/08/08 00:12:43;;;;;;;17.20;11.53;;;;;;;11.40;100.00;99246.63;1614112;88;20989;-70
2021/08/08 00:15:12;;;;;;;12.63;10.08;;;;;;;11.36;100.00;99251.16;1614190;88;26435;-72
2021/08/08 00:17:39;;;;;;;17.32;10.05;;;;;;;11.42;100.00;99253.88;1614216;88;21198;-69
2021/08/08 00:20:10;;;;;;;;;;;;;;;11.51;100.00;99250.92;1616547;88;20966;-69
2021/08/08 00:22:37;;;;;;;10.08;8.45;;;;;;;11.58;100.00;99254.95;1605411;88;20091;-69
2021/08/08 00:25:08;;;;;;;14.10;9.90;;;;;;;11.65;100.00;99256.05;1594129;89;21117;-69
2021/08/08 00:27:38;;;;;;;10.08;9.18;;;;;;;11.62;100.00;99254.44;1594369;90;20991;-70
2021/08/08 00:30:11;;;;;;;19.67;10.58;;;;;;;11.54;100.00;99249.06;1593618;89;21175;-69
2021/08/08 00:32:39;;;;;;;11.20;10.10;;;;;;;11.48;100.00;99250.12;1593979;90;21657;-70
2021/08/08 00:35:09;;;;;;;13.88;10.43;;;;;;;11.54;100.00;99253.09;1593878;90;21019;-70
2021/08/08 00:37:37;;;;;;;18.02;10.60;;;;;;;11.55;100.00;99250.12;1593798;90;21023;-70
2021/08/08 00:40:06;;;;;;;15.18;10.53;;;;;;;11.50;100.00;99260.06;1593871;90;21107;-70
2021/08/08 00:42:33;;;;;;;29.10;16.27;;;;;;;11.45;100.00;99257.38;1573191;90;21165;-70
2021/08/08 00:45:00;;;;;;;29.92;18.15;;;;;;;11.43;100.00;99245.53;1593709;90;21078;-70
2021/08/08 00:47:28;;;;;;;22.75;14.73;;;;;;;11.44;100.00;99250.37;1594054;90;21054;-70
2021/08/08 00:49:55;;;;;;;23.25;16.30;;;;;;;11.43;100.00;99243.39;1593941;90;21023;-70
2021/08/08 00:52:22;;;;;;;18.50;13.55;;;;;;;11.38;100.00;99253.59;1594001;90;21092;-70
2021/08/08 00:54:49;;;;;;;20.23;15.83;;;;;;;11.36;100.00;99250.36;1593759;90;21167;-70
2021/08/08 00:57:16;;;;;;;26.30;15.63;;;;;;;11.34;100.00;99250.64;1593945;90;21082;-70
2021/08/08 00:59:43;;;;;;;25.02;18.17;;;;;;;11.26;100.00;99248.45;1594179;90;21018;-69
2021/08/08 01:02:10;;;;;;;34.33;23.02;;;;;;;11.25;100.00;99254.12;1593808;90;21031;-69
2021/08/08 01:04:41;;;;;;;22.82;17.80;;;;;;;11.21;100.00;99256.52;1593851;89;21055;-70
2021/08/08 01:07:20;;;;;;;34.60;21.85;;;;;;;11.22;100.00;99252.77;1593755;89;21076;-70
2021/08/08 01:09:54;;;;;;;44.65;27.82;;;;;;;11.17;100.00;99259.47;1593846;90;21097;-70
2021/08/08 01:12:21;;;;;;;35.25;25.70;;;;;;;11.16;100.00;99253.81;1593884;90;20943;-70
2021/08/08 01:14:52;;;;;;;35.90;23.85;;;;;;;11.16;100.00;99248.44;1593991;90;21031;-69
2021/08/08 01:17:19;;;;;;;33.15;22.30;;;;;;;11.18;100.00;99249.53;1593833;90;21140;-68
2021/08/08 01:20:07;;;;;;;34.18;22.42;;;;;;;11.19;100.00;99246.56;1593985;90;22072;-68
2021/08/08 01:22:38;;;;;;;30.10;21.60;;;;;;;11.17;100.00;99252.76;1592878;90;21086;-70
2021/08/08 01:25:07;;;;;;;31.68;21.73;;;;;;;11.17;100.00;99251.41;1593934;90;21066;-69
2021/08/08 01:27:34;;;;;;;29.57;21.85;;;;;;;11.18;100.00;99256.24;1593871;90;20991;-69
2021/08/08 01:30:01;;;;;;;21.60;17.50;;;;;;;11.22;100.00;99259.48;1593936;90;21462;-69
2021/08/08 01:32:33;;;;;;;26.25;19.17;;;;;;;11.28;100.00;99265.67;1593851;90;21482;-70
2021/08/08 01:34:57;;;;;;;27.60;20.00;;;;;;;11.31;100.00;99261.09;1593497;90;21074;-70
2021/08/08 01:37:25;;;;;;;28.67;20.55;;;;;;;11.30;100.00;99267.02;1593861;90;20947;-69
2021/08/08 01:40:05;;;;;;;27.98;18.40;;;;;;;11.29;100.00;99271.30;1593857;90;20994;-69
2021/08/08 01:42:32;;;;;;;27.87;20.37;;;;;;;11.24;100.00;99269.41;1613630;88;21145;-69
2021/08/08 01:44:59;;;;;;;20.48;15.43;;;;;;;11.24;100.00;99268.61;1613826;88;21249;-68
2021/08/08 01:47:32;;;;;;;19.10;14.68;;;;;;;11.25;100.00;99268.89;1613995;88;21548;-68
2021/08/08 01:50:00;;;;;;;24.37;15.63;;;;;;;11.31;100.00;99275.33;1613975;88;21050;-69
2021/08/08 01:52:29;;;;;;;16.37;14.33;;;;;;;11.36;100.00;99268.63;1614232;88;21565;-69
2021/08/08 01:54:56;;;;;;;14.23;12.75;;;;;;;11.35;100.00;99265.69;1618162;86;21624;-69
2021/08/08 01:57:24;;;;;;;20.27;14.18;;;;;;;11.35;100.00;99269.71;1646094;87;21162;-69
2021/08/08 01:59:52;;;;;;;14.03;11.85;;;;;;;11.34;100.00;99272.66;1646771;87;21581;-69
2021/08/08 02:02:20;;;;;;;14.87;12.82;;;;;;;11.30;100.00;99275.08;1646439;87;20964;-69
2021/08/08 02:04:48;;;;;;;;;;;;;;;11.28;100.00;99276.41;1648887;87;20988;-69
2021/08/08 02:07:18;;;;;;;22.10;13.62;;;;;;;11.24;100.00;99275.32;1658372;85;20450;-68
2021/08/08 02:09:48;;;;;;;18.48;12.80;;;;;;;11.15;100.00;99275.05;1658308;86;20875;-69
2021/08/08 02:12:16;;;;;;;17.67;14.00;;;;;;;11.06;100.00;99273.93;1646379;86;21012;-68
2021/08/08 02:14:44;;;;;;;20.57;12.47;;;;;;;10.98;100.00;99275.25;1646802;87;20952;-69
2021/08/08 02:17:17;;;;;;;13.68;11.50;;;;;;;10.94;100.00;99290.27;1646388;87;21066;-69
2021/08/08 02:19:46;;;;;;;18.90;12.37;;;;;;;10.90;100.00;99282.45;1646474;87;20960;-69
2021/08/08 02:22:14;;;;;;;12.78;11.12;;;;;;;10.86;100.00;99285.41;1646590;86;21582;-69
2021/08/08 02:24:42;;;;;;;17.45;12.78;;;;;;;10.82;100.00;99289.67;1646461;86;21047;-67
2021/08/08 02:27:15;;;;;;;17.17;13.05;;;;;;;10.80;100.00;99286.44;1646199;87;21015;-68
2021/08/08 02:29:43;;;;;;;21.97;13.72;;;;;;;10.70;100.00;99283.97;1646595;87;20987;-68
2021/08/08 02:32:14;;;;;;;;;;;;;;;10.60;100.00;99282.58;1648964;87;21070;-69
2021/08/08 02:34:42;;;;;;;15.90;12.25;;;;;;;10.53;100.00;99279.31;1658715;86;21188;-68
2021/08/08 02:37:10;;;;;;;24.35;13.98;;;;;;;10.45;100.00;99273.11;1658710;85;20895;-68
2021/08/08 02:39:37;;;;;;;16.60;12.88;;;;;;;10.40;100.00;99274.42;1641582;87;21008;-68
2021/08/08 02:42:04;;;;;;;17.42;12.85;;;;;;;10.34;100.00;99274.11;1628014;87;21574;-68
2021/08/08 02:44:33;;;;;;;21.30;12.85;;;;;;;10.29;100.00;99278.39;1646987;87;21622;-68
2021/08/08 02:47:00;;;;;;;20.02;13.85;;;;;;;10.26;100.00;99283.42;1646903;87;22000;-68
2021/08/08 02:49:27;;;;;;;16.12;13.83;;;;;;;10.24;100.00;99272.13;1646718;86;21428;-69
2021/08/08 02:51:56;;;;;;;19.13;13.70;;;;;;;10.21;100.00;99282.05;1646321;87;21542;-69
2021/08/08 02:54:25;;;;;;;20.70;12.50;;;;;;;10.16;100.00;99286.84;1646996;87;28673;-69
2021/08/08 02:56:52;;;;;;;17.70;12.95;;;;;;;10.17;100.00;99290.34;1646979;87;24813;-69
2021/08/08 02:59:20;;;;;;;;;;;;;;;10.15;100.00;99287.91;1649103;86;21176;-69
2021/08/08 03:01:47;;;;;;;28.60;21.15;;;;;;;10.21;100.00;99290.09;1660360;85;20450;-68
2021/08/08 03:04:14;;;;;;;22.50;14.75;;;;;;;10.27;100.00;99287.20;1641473;87;21539;-68
2021/08/08 03:06:47;;;;;;;19.73;14.40;;;;;;;10.34;100.00;99284.33;1641584;87;21520;-68
2021/08/08 03:09:14;;;;;;;19.60;15.00;;;;;;;10.39;100.00;99298.31;1641444;87;21051;-69
2021/08/08 03:11:45;;;;;;;21.82;15.53;;;;;;;10.43;100.00;99296.16;1641596;86;21912;-68
2021/08/08 03:14:16;;;;;;;23.50;15.93;;;;;;;10.46;100.00;99297.02;1665062;86;21079;-68
2021/08/08 03:16:46;;;;;;;27.45;15.80;;;;;;;10.50;100.00;99299.43;1641947;86;20961;-68
2021/08/08 03:19:15;;;;;;;27.52;17.05;;;;;;;10.55;100.00;99297.86;1670636;86;20946;-68
2021/08/08 03:21:42;;;;;;;22.95;16.25;;;;;;;10.62;100.00;99297.89;1642091;87;21623;-69
2021/08/08 03:24:10;;;;;;;27.67;16.82;;;;;;;10.68;100.00;99303.58;1665660;86;21968;-69
2021/08/08 03:26:38;;;;;;;27.37;16.60;;;;;;;10.76;100.00;99305.50;1665454;86;20935;-69
2021/08/08 03:29:06;;;;;;;26.52;17.42;;;;;;;10.82;100.00;99312.49;1665396;86;20912;-69
2021/08/08 03:31:32;;;;;;;27.17;17.50;;;;;;;10.89;100.00;99313.87;1674909;84;21050;-69
2021/08/08 03:34:00;;;;;;;28.25;17.80;;;;;;;10.99;100.00;99310.97;1663233;86;21019;-69
2021/08/08 03:36:28;;;;;;;33.70;18.92;;;;;;;11.07;100.00;99318.51;1643828;86;21829;-69
2021/08/08 03:38:56;;;;;;;34.18;19.48;;;;;;;11.09;100.00;99319.86;1642652;86;21053;-68
2021/08/08 03:41:22;;;;;;;39.55;21.48;;;;;;;11.11;100.00;99320.95;1642097;87;21001;-68
2021/08/08 03:43:53;;;;;;;34.43;19.50;;;;;;;11.13;100.00;99322.84;1628888;86;21577;-70
2021/08/08 03:46:20;;;;;;;38.58;20.10;;;;;;;11.19;100.00;99324.46;1646854;87;21023;-69
2021/08/08 03:48:48;;;;;;;33.42;18.60;;;;;;;11.27;100.00;99324.48;1646741;87;21175;-68
2021/08/08 03:51:18;;;;;;;30.23;18.35;;;;;;;11.32;100.00;99322.64;1646670;87;20900;-69
2021/08/08 03:53:47;;;;;;;33.95;19.15;;;;;;;11.43;100.00;99326.70;1646845;86;20913;-68
2021/08/08 03:56:14;;;;;;;31.40;18.12;;;;;;;11.51;100.00;99324.31;1647036;87;21535;-68
2021/08/08 03:58:41;;;;;;;30.17;17.20;;;;;;;11.59;100.00;99322.98;1646826;87;20979;-69
2021/08/08 04:01:09;;;;;;;25.37;16.50;;;;;;;11.70;100.00;99323.26;1646744;87;21178;-69
2021/08/08 04:03:36;;;;;;;26.05;16.17;;;;;;;11.86;100.00;99317.92;1646807;87;20920;-69
2021/08/08 04:06:03;;;;;;;18.90;14.10;;;;;;;12.00;100.00;99305.05;1646889;87;21056;-68
2021/08/08 04:08:30;;;;;;;27.67;14.63;;;;;;;12.16;100.00;99309.88;1647118;87;20929;-68
2021/08/08 04:11:00;;;;;;;18.07;12.50;;;;;;;12.31;100.00;99312.28;1646737;85;21502;-69
2021/08/08 04:13:28;;;;;;;16.85;11.80;;;;;;;12.49;100.00;99321.67;1647110;87;26801;-69
2021/08/08 04:15:54;;;;;;;17.23;12.37;;;;;;;12.62;100.00;99318.44;1646689;87;20995;-69
2021/08/08 04:18:22;;;;;;;17.35;11.15;;;;;;;12.77;100.00;99325.13;1646829;87;20968;-69
2021/08/08 04:20:49;;;;;;;15.65;11.53;;;;;;;12.90;100.00;99326.42;1646629;87;20960;-68
2021/08/08 04:23:17;;;;;;;16.85;11.28;;;;;;;13.12;100.00;99324.73;1646515;87;20968;-68
2021/08/08 04:25:45;;;;;;;16.17;10.75;;;;;;;13.38;100.00;99329.50;1646765;87;21593;-68
2021/08/08 04:28:12;;;;;;;21.52;11.25;;;;;;;13.64;100.00;99329.34;1646715;87;20999;-69
2021/08/08 04:30:40;;;;;;;16.77;11.15;;;;;;;13.85;100.00;99338.13;1646978;87;20924;-69
2021/08/08 04:33:08;;;;;;;16.82;10.95;;;;;;;13.97;100.00;99341.27;1646851;87;21012;-69
2021/08/08 04:35:37;;;;;;;14.87;10.08;;;;;;;14.12;100.00;99343.05;1646855;87;20983;-70
2021/08/08 04:38:05;;;;;;;11.30;9.08;;;;;;;14.38;100.00;99343.65;1646304;87;21126;-69
2021/08/08 04:40:32;;;;;;;;;;;;;;;14.57;100.00;99344.55;1649333;87;21002;-67
2021/08/08 04:42:59;;;;;;;16.05;8.25;;;;;;;14.71;100.00;99346.59;1658754;85;20096;-69
2021/08/08 04:45:26;;;;;;;10.30;8.30;;;;;;;14.75;100.00;99355.75;1659105;86;20931;-69
2021/08/08 04:47:54;;;;;;;12.85;8.48;;;;;;;14.88;100.00;99347.50;1658541;86;20951;-70
2021/08/08 04:50:21;;;;;;;11.03;7.97;;;;;;;15.07;100.00;99338.91;1658861;86;21143;-70
2021/08/08 04:52:50;;;;;;;11.48;7.75;;;;;;;15.31;100.00;99337.53;1658528;86;21002;-70
2021/08/08 04:55:17;;;;;;;9.80;7.62;;;;;;;15.51;100.00;99337.81;1658877;86;20991;-71
2021/08/08 04:57:46;;;;;;;14.90;6.90;;;;;;;15.72;100.00;99348.36;1658723;86;20935;-71
2021/08/08 05:00:17;;;;;;;14.00;7.65;;;;;;;15.74;100.00;99346.97;1658539;86;21026;-71
2021/08/08 05:02:47;;;;;;;10.68;7.50;;;;;;;15.80;100.00;99351.75;1630579;88;21544;-72
2021/08/08 05:05:15;;;;;;;8.73;6.67;;;;;;;16.01;100.00;99351.70;1658074;86;20990;-72
2021/08/08 05:07:42;;;;;;;10.75;7.45;;;;;;;16.30;100.00;99357.48;1641597;86;20964;-71
2021/08/08 05:10:13;;;;;;;8.33;6.85;;;;;;;16.34;100.00;99355.80;1646317;86;21109;-72
2021/08/08 05:12:40;;;;;;;9.88;6.65;;;;;;;16.34;100.00;99359.03;1646150;87;20996;-71
2021/08/08 05:15:09;;;;;;;9.23;7.28;;;;;;;16.52;100.00;99354.13;1664833;86;20986;-73
2021/08/08 05:17:37;;;;;;;8.90;6.60;;;;;;;16.72;100.00;99357.83;1643065;85;21009;-71
2021/08/08 05:20:06;;;;;;;7.92;6.28;;;;;;;16.93;100.00;99353.42;1670792;85;21052;-71
2021/08/08 05:22:33;;;;;;;8.65;6.22;;;;;;;17.19;100.00;99356.98;1641963;87;21563;-72
2021/08/08 05:25:01;;;;;;;8.73;6.33;;;;;;;17.46;100.00;99362.36;1668449;85;20971;-72
2021/08/08 05:27:28;;;;;;;7.95;6.22;;;;;;;17.75;100.00;99359.85;1668133;86;21207;-72
2021/08/08 05:30:04;;;;;;;7.05;5.35;;;;;;;17.91;100.00;99362.50;1667959;86;21034;-72
2021/08/08 05:32:31;;;;;;;6.87;5.95;;;;;;;18.08;100.00;99360.48;1668188;86;20887;-72
2021/08/08 05:34:58;;;;;;;8.65;5.97;;;;;;;18.34;100.00;99362.57;1668306;86;20935;-72
2021/08/08 05:37:24;;;;;;;7.95;5.12;;;;;;;18.70;100.00;99365.18;1668184;86;21482;-73
2021/08/08 05:39:53;;;;;;;9.20;4.95;;;;;;;19.04;100.00;99367.28;1667993;86;21184;-72
2021/08/08 05:42:20;;;;;;;8.78;4.65;;;;;;;19.47;100.00;99372.59;1668142;86;21415;-72
2021/08/08 05:44:47;;;;;;;10.60;4.72;;;;;;;19.86;100.00;99377.16;1668490;86;21571;-72
2021/08/08 05:47:15;;;;;;;9.78;5.33;;;;;;;20.21;100.00;99374.98;1668256;86;21511;-71
2021/08/08 05:49:41;;;;;;;6.50;4.15;;;;;;;20.37;100.00;99373.38;1668338;86;21012;-71
2021/08/08 05:52:12;;;;;;;7.40;4.87;;;;;;;20.49;100.00;99369.98;1668378;86;22060;-71
2021/08/08 05:54:39;;;;;;;6.85;4.55;;;;;;;20.60;100.00;99374.55;1668270;86;21531;-71
2021/08/08 05:57:06;;;;;;;4.65;3.87;;;;;;;20.83;100.00;99376.50;1668483;86;20959;-70
2021/08/08 05:59:32;;;;;;;9.68;5.00;;;;;;;20.93;100.00;99374.20;1668209;86;21022;-70
2021/08/08 06:02:00;;;;;;;5.58;4.15;;;;;;;21.17;100.00;99374.20;1668350;86;21430;-70
2021/08/08 06:04:29;;;;;;;8.35;4.25;;;;;;;21.38;100.00;99379.69;1668431;86;21176;-70
2021/08/08 06:06:57;;;;;;;7.83;4.22;;;;;;;21.59;100.00;99379.20;1668133;86;21010;-71
2021/08/08 06:09:27;;;;;;;10.30;4.75;;;;;;;21.82;100.00;99372.83;1668120;86;20951;-70
2021/08/08 06:11:55;;;;;;;6.08;4.00;;;;;;;22.01;99.99;99376.47;1668170;86;20951;-70
2021/08/08 06:14:22;;;;;;;8.55;4.62;;;;;;;22.25;97.60;99376.39;1668316;85;21533;-70
2021/08/08 06:16:50;;;;;;;5.30;4.47;;;;;;;22.44;95.18;99381.33;1668178;85;21846;-70
2021/08/08 06:19:17;;;;;;;5.45;3.65;;;;;;;22.66;91.42;99378.22;1668169;86;20947;-70
2021/08/08 06:21:46;;;;;;;10.53;4.20;;;;;;;22.99;89.97;99389.69;1668069;85;21011;-70
2021/08/08 06:24:17;;;;;;;9.18;4.53;;;;;;;23.39;87.12;99390.38;1668256;86;21621;-69
2021/08/08 06:26:44;;;;;;;5.58;3.55;;;;;;;23.60;84.12;99390.25;1668218;86;20919;-69
2021/08/08 06:29:14;;;;;;;8.33;4.10;;;;;;;23.67;82.73;99399.27;1668097;86;21189;-70
2021/08/08 06:31:41;;;;;;;6.62;4.05;;;;;;;23.71;80.38;99400.98;1668017;86;20911;-70
2021/08/08 06:34:08;;;;;;;4.95;3.60;;;;;;;24.00;75.04;99403.78;1668016;86;20966;-71
2021/08/08 06:36:36;;;;;;;7.20;4.25;;;;;;;24.22;74.38;99401.08;1668387;86;20970;-70
2021/08/08 06:39:06;;;;;;;7.97;3.75;;;;;;;24.49;73.24;99396.77;1668253;86;21110;-71
2021/08/08 06:41:39;;;;;;;9.80;3.50;;;;;;;24.72;72.96;99404.65;1668032;86;21530;-70
2021/08/08 06:44:08;;;;;;;4.12;2.67;;;;;;;25.07;70.70;99403.16;1667874;86;21446;-70
2021/08/08 06:46:37;;;;;;;10.08;3.37;;;;;;;25.27;65.98;99411.72;1667345;86;21007;-71
2021/08/08 06:49:04;;;;;;;4.03;2.90;;;;;;;24.80;64.64;99408.38;1667568;86;20994;-68
2021/08/08 06:51:32;;;;;;;5.37;2.85;;;;;;;24.87;64.18;99410.52;1668092;86;21026;-68
2021/08/08 06:54:01;;;;;;;3.52;3.05;;;;;;;24.78;64.67;99412.83;1668357;86;21586;-69
2021/08/08 06:56:29;;;;;;;4.25;3.30;;;;;;;24.66;66.15;99412.90;1668043;86;21018;-69
2021/08/08 06:58:56;;;;;;;4.28;3.12;;;;;;;24.59;64.93;99412.71;1668203;86;21038;-68
2021/08/08 07:01:23;;;;;;;4.12;3.02;;;;;;;24.45;61.51;99417.22;1668250;86;21548;-68
2021/08/08 07:03:53;;;;;;;7.05;3.33;;;;;;;24.71;62.97;99414.59;1668117;85;21465;-70
2021/08/08 07:06:22;;;;;;;5.95;3.17;;;;;;;24.79;63.96;99408.13;1668110;86;21166;-69
2021/08/08 07:08:50;;;;;;;4.42;2.72;;;;;;;25.14;63.79;99411.00;1667978;86;20938;-68
2021/08/08 07:11:20;;;;;;;5.50;2.33;;;;;;;25.30;56.73;99417.88;1668212;86;21505;-69
2021/08/08 07:13:48;;;;;;;3.20;2.12;;;;;;;25.30;56.73;99417.88;1668131;86;20990;-69
2021/08/08 07:16:18;;;;;;;2.93;2.27;;;;;;;25.36;52.89;99411.55;1668289;86;21600;-69
2021/08/08 07:18:45;;;;;;;8.85;2.92;;;;;;;25.27;53.47;99417.22;1668153;86;21172;-70
2021/08/08 07:21:12;;;;;;;2.87;2.12;;;;;;;25.50;52.86;99420.69;1668166;85;21703;-70
2021/08/08 07:23:39;;;;;;;3.47;1.95;;;;;;;25.76;51.39;99418.73;1668259;86;21451;-70
2021/08/08 07:26:05;;;;;;;4.97;2.23;;;;;;;25.86;48.12;99420.36;1679630;84;21542;-71
2021/08/08 07:28:32;;;;;;;4.27;2.53;;;;;;;26.22;48.83;99412.08;1630449;84;21118;-70
2021/08/08 07:30:59;;;;;;;4.62;2.40;;;;;;;26.51;50.08;99414.81;1657142;84;22448;-71
2021/08/08 07:33:27;;;;;;;3.97;2.50;;;;;;;26.22;49.01;99421.13;1678515;85;21519;-70
2021/08/08 07:35:54;;;;;;;2.70;2.50;;;;;;;26.02;51.39;99414.83;1679558;84;20952;-71
2021/08/08 07:38:21;;;;;;;6.97;2.58;;;;;;;26.03;48.25;99419.74;1680286;84;21503;-72
2021/08/08 07:40:49;;;;;;;4.62;2.87;;;;;;;26.06;46.17;99417.05;1674874;84;21082;-72
2021/08/08 07:43:17;;;;;;;3.22;2.08;;;;;;;26.18;50.20;99418.88;1656959;86;21470;-70
2021/08/08 07:45:45;;;;;;;6.22;2.70;;;;;;;26.68;47.45;99419.09;1650225;86;21042;-70
2021/08/08 07:48:13;;;;;;;9.90;2.83;;;;;;;26.86;46.16;99418.03;1651622;86;21570;-72
2021/08/08 07:50:43;;;;;;;6.95;2.20;;;;;;;26.76;47.59;99419.43;1650136;86;20995;-70
2021/08/08 07:53:09;;;;;;;6.30;2.40;;;;;;;26.69;45.84;99422.05;1646207;87;20944;-69
2021/08/08 07:55:37;;;;;;;5.37;2.47;;;;;;;26.55;46.07;99429.45;1646231;87;26930;-71
2021/08/08 07:58:04;;;;;;;2.42;2.20;;;;;;;26.50;45.44;99415.38;1645829;87;28273;-69
2021/08/08 08:00:31;;;;;;;;;;;;;;;26.68;46.51;99425.98;1657443;84;21594;-68
2021/08/08 08:03:01;;;;;;;5.30;2.55;;;;;;;27.01;44.57;99419.07;1660585;84;20254;-71
2021/08/08 08:05:28;;;;;;;5.08;2.05;;;;;;;27.15;45.53;99422.06;1656275;84;21129;-69
2021/08/08 08:08:02;;;;;;;6.08;2.33;;;;;;;27.12;45.69;99420.03;1667655;83;20894;-70
2021/08/08 08:10:31;;;;;;;3.00;2.25;;;;;;;27.21;44.93;99426.12;1689129;83;20966;-68
2021/08/08 08:13:01;;;;;;;5.03;2.22;;;;;;;27.03;44.26;99429.14;1653529;85;20997;-69
2021/08/08 08:15:28;;;;;;;9.03;2.22;;;;;;;27.03;46.18;99425.02;1647092;84;20986;-71
2021/08/08 08:17:56;;;;;;;4.78;2.10;;;;;;;27.37;44.53;99434.27;1646165;87;21029;-69
2021/08/08 08:20:28;;;;;;;5.92;2.42;;;;;;;27.60;43.03;99434.80;1645937;87;21231;-70
2021/08/08 08:22:54;;;;;;;3.85;2.00;;;;;;;27.10;43.49;99446.58;1658541;84;21502;-71
2021/08/08 08:25:24;;;;;;;2.98;2.27;;;;;;;26.80;43.36;99445.08;1634556;84;21566;-70
2021/08/08 08:27:51;;;;;;;3.05;2.10;;;;;;;26.59;44.12;99443.30;1664721;83;20988;-70
2021/08/08 08:30:20;;;;;;;4.45;2.22;;;;;;;26.10;45.21;99439.14;1684831;83;20964;-69
2021/08/08 08:32:46;;;;;;;5.30;2.20;;;;;;;26.30;46.99;99441.31;1684676;85;21160;-70
2021/08/08 08:35:13;;;;;;;7.87;2.20;;;;;;;26.71;47.13;99441.76;1684395;85;21044;-69
2021/08/08 08:37:41;;;;;;;2.75;2.20;;;;;;;27.19;46.32;99457.95;1684337;84;21776;-71
2021/08/08 08:40:09;;;;;;;5.90;2.60;;;;;;;27.44;45.32;99453.67;1683423;84;21095;-69
2021/08/08 08:42:50;;;;;;;21.55;2.85;;;;;;;27.52;44.68;99453.19;1684473;85;21467;-69
2021/08/08 08:45:18;;;;;;;4.37;2.15;;;;;;;27.74;44.59;99452.34;1684884;85;21144;-72
2021/08/08 08:47:45;;;;;;;2.70;2.40;;;;;;;28.14;43.39;99458.42;1684944;84;21078;-71
2021/08/08 08:50:14;;;;;;;4.90;2.50;;;;;;;28.14;42.11;99466.11;1685006;85;21680;-72
2021/08/08 08:52:41;;;;;;;;;;;;;;;27.96;42.39;99462.33;1687248;84;21032;-71
2021/08/08 08:55:08;;;;;;;;;;;;;;;28.07;40.75;99468.77;1688018;85;20123;-72
2021/08/08 08:57:40;;;;;;;3.65;2.10;;;;;;;28.24;42.19;99468.80;1684748;84;21102;-73
2021/08/08 09:00:07;;;;;;;6.47;2.47;;;;;;;28.12;42.93;99458.78;1684359;85;21494;-72
2021/08/08 09:02:36;;;;;;;3.47;2.10;;;;;;;28.30;42.17;99470.66;1684783;85;21076;-72
2021/08/08 09:05:04;;;;;;;8.05;2.15;;;;;;;28.51;42.04;99452.98;1684921;85;21617;-72
2021/08/08 09:07:31;;;;;;;4.80;2.60;;;;;;;28.61;41.24;99457.86;1693720;84;20918;-72
2021/08/08 09:09:58;;;;;;;2.50;2.30;;;;;;;28.79;42.15;99449.75;1660061;86;22295;-73
2021/08/08 09:12:26;;;;;;;;;;;;;;;28.37;42.22;99442.56;1662437;86;21011;-73
2021/08/08 09:15:02;;;;;;;4.12;2.33;;;;;;;27.47;44.46;99448.78;1660313;86;20530;-71
2021/08/08 09:17:39;;;;;;;5.53;2.30;;;;;;;27.54;43.80;99442.01;1694130;83;21015;-72
2021/08/08 09:20:10;;;;;;;4.97;3.05;;;;;;;27.86;43.58;99440.33;1676105;85;21068;-74
2021/08/08 09:22:39;;;;;;;3.15;2.47;;;;;;;28.03;42.50;99450.02;1689697;85;21138;-74
2021/08/08 09:25:11;;;;;;;2.92;2.00;;;;;;;28.16;42.37;99441.70;1660179;86;20955;-72
2021/08/08 09:27:39;;;;;;;3.00;2.33;;;;;;;27.98;41.45;99440.11;1668193;85;21479;-70
2021/08/08 09:30:19;;;;;;;5.20;2.58;;;;;;;27.76;42.25;99427.95;1685170;85;21563;-74
2021/08/08 09:32:47;;;;;;;3.22;2.60;;;;;;;27.71;42.70;99437.14;1685340;84;21626;-70
2021/08/08 09:35:19;;;;;;;4.22;2.70;;;;;;;27.77;43.91;99439.18;1685286;85;21156;-71
2021/08/08 09:37:42;;;;;;;3.70;2.52;;;;;;;27.11;44.86;99436.36;1684486;84;21003;-70
2021/08/08 09:40:14;;;;;;;4.07;2.83;;;;;;;27.34;44.73;99432.22;1685209;85;21003;-71
2021/08/08 09:42:45;;;;;;;6.58;3.10;;;;;;;27.13;44.56;99432.66;1667929;85;21427;-72
2021/08/08 09:45:14;;;;;;;5.58;2.50;;;;;;;27.03;48.44;99431.31;1685091;84;21027;-72
2021/08/08 09:47:47;;;;;;;5.83;2.75;;;;;;;27.32;44.94;99431.82;1689623;85;21156;-75
2021/08/08 09:50:20;;;;;;;3.50;2.60;;;;;;;27.72;43.54;99435.37;1654107;86;21015;-72
2021/08/08 09:53:02;;;;;;;3.77;3.30;;;;;;;27.95;42.72;99429.83;1651250;87;21620;-73
2021/08/08 09:55:33;;;;;;;5.58;2.60;;;;;;;28.39;42.55;99434.70;1655627;86;21090;-74
2021/08/08 09:58:01;;;;;;;3.25;2.92;;;;;;;28.59;42.86;99438.67;1651786;86;20947;-73
2021/08/08 10:00:35;;;;;;;3.02;2.50;;;;;;;28.87;41.08;99434.63;1655424;86;21170;-72
2021/08/08 10:03:07;;;;;;;3.67;2.75;;;;;;;29.20;40.99;99436.52;1651358;86;20948;-72
2021/08/08 10:05:38;;;;;;;2.77;2.52;;;;;;;29.12;40.72;99441.20;1655354;86;21530;-71
2021/08/08 10:08:15;;;;;;;2.65;2.02;;;;;;;29.04;42.01;99437.55;1651255;86;20955;-72
2021/08/08 10:10:46;;;;;;;3.52;2.05;;;;;;;28.70;41.57;99440.97;1650828;87;21002;-71
2021/08/08 10:13:57;;;;;;;2.67;2.20;;;;;;;28.48;42.61;99440.53;1651116;87;20963;-73
2021/08/08 10:16:25;;;;;;;3.37;2.12;;;;;;;28.58;42.77;99435.72;1655417;86;21050;-72
2021/08/08 10:18:54;;;;;;;4.83;2.25;;;;;;;28.50;41.07;99434.05;1651487;86;21641;-76
2021/08/08 10:21:21;;;;;;;3.55;2.52;;;;;;;28.62;41.76;99432.41;1655603;86;21037;-75
2021/08/08 10:23:48;;;;;;;6.65;2.30;;;;;;;28.93;40.76;99432.50;1651845;86;20947;-73
2021/08/08 10:26:18;;;;;;;2.67;2.20;;;;;;;28.74;40.11;99428.00;1655440;86;20994;-72
2021/08/08 10:28:46;;;;;;;3.55;2.15;;;;;;;28.63;40.49;99431.23;1651435;86;21010;-76
2021/08/08 10:31:17;;;;;;;2.05;1.90;;;;;;;28.59;41.86;99435.34;1658883;86;21066;-71
2021/08/08 10:33:47;;;;;;;6.92;2.10;;;;;;;28.50;41.54;99440.37;1632851;87;21020;-73
2021/08/08 10:36:23;;;;;;;3.40;2.47;;;;;;;28.74;41.00;99432.73;1655302;86;21534;-72
2021/08/08 10:38:52;;;;;;;3.10;2.30;;;;;;;29.08;41.02;99437.63;1651551;86;21136;-72
2021/08/08 10:41:19;;;;;;;4.08;2.47;;;;;;;29.41;41.73;99437.29;1655501;86;20864;-72
2021/08/08 10:43:46;;;;;;;4.85;2.40;;;;;;;29.59;39.30;99435.42;1651256;86;26656;-70
2021/08/08 10:46:15;;;;;;;6.90;2.60;;;;;;;28.81;40.19;99432.22;1655242;86;21604;-71
2021/08/08 10:48:44;;;;;;;2.55;1.95;;;;;;;28.34;40.58;99430.88;1651218;86;21036;-72
2021/08/08 10:51:25;;;;;;;2.83;2.08;;;;;;;28.31;40.15;99420.59;1655798;86;21158;-71
2021/08/08 10:54:09;;;;;;;4.03;2.08;;;;;;;28.39;41.44;99423.66;1651547;86;21046;-70
2021/08/08 10:56:47;;;;;;;3.30;2.47;;;;;;;27.72;44.04;99411.93;1655634;86;21001;-71
2021/08/08 10:59:23;;;;;;;3.58;2.67;;;;;;;27.91;42.69;99418.53;1632589;86;20963;-72
2021/08/08 11:02:08;;;;;;;2.58;1.92;;;;;;;28.08;42.56;99417.96;1694473;84;21033;-74
2021/08/08 11:04:36;;;;;;;4.95;2.40;;;;;;;28.17;42.64;99413.52;1693985;84;21834;-71
2021/08/08 11:07:05;;;;;;;3.77;2.40;;;;;;;28.18;41.55;99418.67;1694046;84;21061;-73
2021/08/08 11:09:37;;;;;;;3.37;2.25;;;;;;;28.49;41.87;99419.44;1665330;86;21069;-71
2021/08/08 11:12:08;;;;;;;4.80;2.17;;;;;;;28.96;39.49;99422.69;1665138;86;21137;-71
2021/08/08 11:14:35;;;;;;;2.47;2.27;;;;;;;28.93;39.92;99422.05;1665379;85;20986;-73
2021/08/08 11:17:07;;;;;;;2.25;2.05;;;;;;;28.97;39.89;99422.29;1665679;86;21123;-72
2021/08/08 11:19:40;;;;;;;8.73;2.40;;;;;;;28.78;40.92;99419.15;1665167;86;20990;-71
2021/08/08 11:22:13;;;;;;;2.55;2.05;;;;;;;28.52;40.94;99422.05;1636841;87;21601;-72
2021/08/08 11:24:43;;;;;;;3.75;2.05;;;;;;;28.82;41.17;99422.75;1665489;86;21005;-71
2021/08/08 11:27:11;;;;;;;3.87;2.60;;;;;;;29.10;40.61;99417.30;1636935;87;21504;-73
2021/08/08 11:29:38;;;;;;;2.40;2.08;;;;;;;29.27;38.81;99420.00;1665064;86;21545;-73
2021/08/08 11:32:07;;;;;;;2.52;2.10;;;;;;;29.45;39.08;99419.55;1637098;87;20979;-72